Time;durP1;ratioP1;P1;durP2;ratioP2;P2;SDS_P1;SDS_P2;PMS_P1;PMS_P2;Temp;Humidity;BMP_temperature;BMP_pressure;BME280_temperature;BME280_humidity;BME280_pressure;Samples;Min_cycle;Max_cycle;Signal;HPM_P1;HPM_P2
2024/01/24 00:00:31;;;;;;;0.30;0.30;;;;;;;;;;5097131;28;20395;-91
2024/01/24 00:03:00;;;;;;;0.30;0.30;;;;;;;;;;5099768;27;20031;-92
2024/01/24 00:05:26;;;;;;;0.30;0.30;;;;;;;;;;5100245;27;20037;-93
2024/01/24 00:07:52;;;;;;;0.30;0.30;;;;;;;;;;5100401;27;20030;-92
2024/01/24 00:10:18;;;;;;;0.20;0.20;;;;;;;;;;5100115;27;20039;-93
2024/01/24 00:12:44;;;;;;;0.30;0.30;;;;;;;;;;5099948;27;20108;-92
2024/01/24 00:15:10;;;;;;;0.22;0.22;;;;;;;;;;5099844;27;20039;-92
2024/01/24 00:17:42;;;;;;;0.30;0.30;;;;;;;;;;5099902;27;20039;-92
2024/01/24 00:20:12;;;;;;;0.50;0.50;;;;;;;;;;5099704;27;20046;-92
2024/01/24 00:22:42;;;;;;;0.30;0.30;;;;;;;;;;5099716;27;20035;-91
2024/01/24 00:25:11;;;;;;;0.20;0.20;;;;;;;;;;5100146;27;20062;-91
2024/01/24 00:27:37;;;;;;;0.20;0.20;;;;;;;;;;5083346;27;20043;-93
2024/01/24 00:30:04;;;;;;;0.30;0.30;;;;;;;;;;5099689;27;20042;-92
2024/01/24 00:32:30;;;;;;;0.30;0.30;;;;;;;;;;5099658;27;20046;-93
2024/01/24 00:34:56;;;;;;;0.30;0.30;;;;;;;;;;5099947;27;20039;-92
2024/01/24 00:37:23;;;;;;;0.30;0.30;;;;;;;;;;5100015;27;20122;-92
2024/01/24 00:39:49;;;;;;;0.30;0.30;;;;;;;;;;5099014;27;20050;-93
2024/01/24 00:42:15;;;;;;;0.30;0.30;;;;;;;;;;5099172;27;20612;-92
2024/01/24 00:44:59;;;;;;;0.20;0.20;;;;;;;;;;5099983;28;20100;-92
2024/01/24 00:47:25;;;;;;;0.28;0.28;;;;;;;;;;5099478;28;20567;-92
2024/01/24 00:49:51;;;;;;;0.30;0.30;;;;;;;;;;5099490;28;20031;-93
2024/01/24 00:52:17;;;;;;;0.20;0.20;;;;;;;;;;5099707;28;20046;-93
2024/01/24 00:54:45;;;;;;;0.30;0.30;;;;;;;;;;5100477;27;20118;-93
2024/01/24 00:57:11;;;;;;;0.22;0.22;;;;;;;;;;5085141;28;20802;-92
2024/01/24 00:59:37;;;;;;;0.25;0.25;;;;;;;;;;5099563;28;20132;-92
2024/01/24 01:02:37;;;;;;;0.40;0.40;;;;;;;;;;5101275;28;20547;-92
2024/01/24 01:05:06;;;;;;;0.40;0.40;;;;;;;;;;5104096;28;20031;-92
2024/01/24 01:07:32;;;;;;;0.20;0.20;;;;;;;;;;5111728;28;20046;-92
2024/01/24 01:09:58;;;;;;;0.30;0.30;;;;;;;;;;5100373;28;20031;-92
2024/01/24 01:12:24;;;;;;;0.30;0.30;;;;;;;;;;5110338;28;20031;-92
2024/01/24 01:14:50;;;;;;;0.30;0.30;;;;;;;;;;5092850;28;20031;-93
2024/01/24 01:17:16;;;;;;;0.30;0.30;;;;;;;;;;5099433;28;20085;-93
2024/01/24 01:19:42;;;;;;;0.20;0.20;;;;;;;;;;5099453;28;20041;-93
2024/01/24 01:22:08;;;;;;;0.30;0.30;;;;;;;;;;5125640;28;20031;-93
2024/01/24 01:24:34;;;;;;;0.20;0.20;;;;;;;;;;5109103;28;20050;-94
2024/01/24 01:27:00;;;;;;;0.30;0.30;;;;;;;;;;5099927;28;20071;-94
2024/01/24 01:29:26;;;;;;;0.30;0.30;;;;;;;;;;5099551;28;20046;-93
2024/01/24 01:31:52;;;;;;;0.30;0.30;;;;;;;;;;5099513;28;20043;-93
2024/01/24 01:34:18;;;;;;;0.30;0.30;;;;;;;;;;5115807;28;20039;-94
2024/01/24 01:36:44;;;;;;;0.20;0.20;;;;;;;;;;5099336;28;20398;-94
2024/01/24 01:39:10;;;;;;;0.30;0.30;;;;;;;;;;5099137;28;20035;-93
2024/01/24 01:41:36;;;;;;;0.30;0.30;;;;;;;;;;5099257;28;20091;-93
2024/01/24 01:44:03;;;;;;;0.30;0.30;;;;;;;;;;5099431;28;20121;-93
2024/01/24 01:46:29;;;;;;;0.30;0.30;;;;;;;;;;5099092;28;20042;-93
2024/01/24 01:48:56;;;;;;;0.30;0.30;;;;;;;;;;5099345;28;20095;-94
2024/01/24 01:51:23;;;;;;;0.30;0.30;;;;;;;;;;5101463;27;20404;-94
2024/01/24 01:53:49;;;;;;;0.30;0.30;;;;;;;;;;5102589;27;20035;-93
2024/01/24 01:56:18;;;;;;;0.40;0.40;;;;;;;;;;5102789;27;20399;-94
2024/01/24 01:58:44;;;;;;;0.30;0.30;;;;;;;;;;5102611;27;20071;-93
2024/01/24 02:01:11;;;;;;;0.22;0.22;;;;;;;;;;5103004;27;20047;-93
2024/01/24 02:03:37;;;;;;;0.20;0.20;;;;;;;;;;5102607;27;20039;-93
2024/01/24 02:06:04;;;;;;;0.25;0.25;;;;;;;;;;5102575;27;20031;-94
2024/01/24 02:08:35;;;;;;;0.40;0.40;;;;;;;;;;5102623;27;20502;-93
2024/01/24 02:11:01;;;;;;;0.22;0.22;;;;;;;;;;5102382;27;20130;-93
2024/01/24 02:13:31;;;;;;;0.30;0.30;;;;;;;;;;5102504;27;20049;-93
2024/01/24 02:15:58;;;;;;;0.25;0.25;;;;;;;;;;5102269;27;20108;-93
2024/01/24 02:18:24;;;;;;;0.20;0.20;;;;;;;;;;5102424;27;20035;-92
2024/01/24 02:20:51;;;;;;;0.20;0.20;;;;;;;;;;5102242;27;20491;-94
2024/01/24 02:23:18;;;;;;;0.22;0.22;;;;;;;;;;5102051;27;20126;-94
2024/01/24 02:25:44;;;;;;;0.30;0.30;;;;;;;;;;5102373;27;20031;-94
2024/01/24 02:28:10;;;;;;;0.20;0.20;;;;;;;;;;5102494;27;20114;-92
2024/01/24 02:30:36;;;;;;;0.30;0.30;;;;;;;;;;5102316;27;20099;-92
2024/01/24 02:33:02;;;;;;;0.10;0.10;;;;;;;;;;5102127;27;20043;-91
2024/01/24 02:35:28;;;;;;;0.28;0.28;;;;;;;;;;5122364;27;20403;-91
2024/01/24 02:37:54;;;;;;;0.40;0.40;;;;;;;;;;5103632;27;20043;-92
2024/01/24 02:40:21;;;;;;;0.20;0.20;;;;;;;;;;5102136;27;20039;-92
2024/01/24 02:42:47;;;;;;;0.20;0.20;;;;;;;;;;5101773;27;20042;-91
2024/01/24 02:45:13;;;;;;;0.30;0.30;;;;;;;;;;5101879;27;20043;-93
2024/01/24 02:47:39;;;;;;;0.20;0.20;;;;;;;;;;5118906;27;20407;-91
2024/01/24 02:50:07;;;;;;;0.20;0.20;;;;;;;;;;5101661;27;20508;-90
2024/01/24 02:52:33;;;;;;;0.20;0.20;;;;;;;;;;5096944;28;20464;-91
2024/01/24 02:54:59;;;;;;;0.22;0.22;;;;;;;;;;5081674;28;20048;-91
2024/01/24 02:57:25;;;;;;;0.22;0.22;;;;;;;;;;5098255;28;20045;-91
2024/01/24 02:59:51;;;;;;;0.20;0.20;;;;;;;;;;5081630;28;20040;-91
2024/01/24 03:02:17;;;;;;;0.25;0.25;;;;;;;;;;5080159;28;20096;-91
2024/01/24 03:04:43;;;;;;;0.20;0.20;;;;;;;;;;5081125;28;20032;-93
2024/01/24 03:07:09;;;;;;;0.20;0.20;;;;;;;;;;5081032;28;20042;-92
2024/01/24 03:09:35;;;;;;;0.28;0.28;;;;;;;;;;5081597;28;20031;-91
2024/01/24 03:12:01;;;;;;;0.30;0.30;;;;;;;;;;5081120;28;20042;-91
2024/01/24 03:14:27;;;;;;;0.40;0.40;;;;;;;;;;5081276;28;20058;-91
2024/01/24 03:16:53;;;;;;;0.30;0.30;;;;;;;;;;5096540;27;20126;-92
2024/01/24 03:19:19;;;;;;;0.30;0.30;;;;;;;;;;5100985;27;20096;-92
2024/01/24 03:21:45;;;;;;;0.30;0.30;;;;;;;;;;5101313;27;20097;-93
2024/01/24 03:24:11;;;;;;;0.35;0.35;;;;;;;;;;5101262;27;20039;-91
2024/01/24 03:26:37;;;;;;;0.30;0.30;;;;;;;;;;5101014;27;20122;-92
2024/01/24 03:29:03;;;;;;;0.50;0.50;;;;;;;;;;5100941;27;20042;-90
2024/01/24 03:31:28;;;;;;;0.30;0.30;;;;;;;;;;5101041;27;20384;-90
2024/01/24 03:33:54;;;;;;;0.20;0.20;;;;;;;;;;5117885;27;20125;-90
2024/01/24 03:36:20;;;;;;;0.30;0.30;;;;;;;;;;5100648;27;20047;-90
2024/01/24 03:38:47;;;;;;;0.30;0.30;;;;;;;;;;5100927;27;20074;-91
2024/01/24 03:41:13;;;;;;;0.20;0.20;;;;;;;;;;5117397;27;20039;-91
2024/01/24 03:43:42;;;;;;;0.30;0.30;;;;;;;;;;5100479;27;20035;-90
2024/01/24 03:46:08;;;;;;;0.30;0.30;;;;;;;;;;5101089;27;20035;-91
2024/01/24 03:48:34;;;;;;;0.30;0.30;;;;;;;;;;5100637;27;20038;-90
2024/01/24 03:51:00;;;;;;;0.20;0.20;;;;;;;;;;5100487;27;20071;-90
2024/01/24 03:53:26;;;;;;;0.30;0.30;;;;;;;;;;5100357;27;20047;-90
2024/01/24 03:55:52;;;;;;;0.40;0.40;;;;;;;;;;5100208;27;20035;-90
2024/01/24 03:58:18;;;;;;;0.30;0.30;;;;;;;;;;5100658;27;20483;-89
2024/01/24 04:00:45;;;;;;;0.20;0.20;;;;;;;;;;5116927;27;20050;-89
2024/01/24 04:03:11;;;;;;;0.30;0.30;;;;;;;;;;5099936;27;20039;-89
2024/01/24 04:05:37;;;;;;;0.25;0.25;;;;;;;;;;5100128;27;20031;-89
2024/01/24 04:08:03;;;;;;;0.30;0.30;;;;;;;;;;5099987;27;20035;-89
2024/01/24 04:10:29;;;;;;;0.30;0.30;;;;;;;;;;5100184;27;20039;-91
2024/01/24 04:12:55;;;;;;;0.28;0.28;;;;;;;;;;5100125;27;20065;-91
2024/01/24 04:15:21;;;;;;;0.30;0.30;;;;;;;;;;5099096;27;20126;-91
2024/01/24 04:17:47;;;;;;;0.30;0.30;;;;;;;;;;5100378;27;20043;-91
2024/01/24 04:20:13;;;;;;;0.30;0.30;;;;;;;;;;5100206;27;20045;-90
2024/01/24 04:22:39;;;;;;;0.40;0.40;;;;;;;;;;5100056;27;20039;-92
2024/01/24 04:25:06;;;;;;;0.30;0.30;;;;;;;;;;5099834;27;20038;-93
2024/01/24 04:27:32;;;;;;;0.30;0.30;;;;;;;;;;5100268;27;20035;-92
2024/01/24 04:29:58;;;;;;;0.40;0.40;;;;;;;;;;5099898;27;20039;-93
2024/01/24 04:32:24;;;;;;;0.30;0.30;;;;;;;;;;5116786;27;20047;-92
2024/01/24 04:34:50;;;;;;;0.30;0.30;;;;;;;;;;5099763;27;20049;-92
2024/01/24 04:37:16;;;;;;;0.30;0.30;;;;;;;;;;5100094;28;20038;-91
2024/01/24 04:39:42;;;;;;;0.32;0.32;;;;;;;;;;5099985;28;20083;-92
2024/01/24 04:42:08;;;;;;;0.30;0.30;;;;;;;;;;5099769;27;20039;-91
2024/01/24 04:44:34;;;;;;;0.38;0.38;;;;;;;;;;5099946;27;20045;-91
2024/01/24 04:47:01;;;;;;;0.30;0.30;;;;;;;;;;5100018;27;20045;-92
2024/01/24 04:49:26;;;;;;;0.30;0.30;;;;;;;;;;5099755;28;20038;-92
2024/01/24 04:51:52;;;;;;;0.30;0.30;;;;;;;;;;5099733;28;20043;-91
2024/01/24 04:54:18;;;;;;;0.30;0.30;;;;;;;;;;5116304;28;20035;-91
2024/01/24 04:56:45;;;;;;;0.30;0.30;;;;;;;;;;5100016;28;20043;-91
2024/01/24 04:59:12;;;;;;;0.38;0.38;;;;;;;;;;5099560;28;20039;-91
2024/01/24 05:01:38;;;;;;;0.20;0.20;;;;;;;;;;5099307;28;20035;-91
2024/01/24 05:04:04;;;;;;;0.30;0.30;;;;;;;;;;5099164;28;20027;-90
2024/01/24 05:06:30;;;;;;;0.40;0.40;;;;;;;;;;5099046;28;20073;-89
2024/01/24 05:08:56;;;;;;;0.30;0.30;;;;;;;;;;5099529;28;20515;-89
2024/01/24 05:11:22;;;;;;;0.40;0.40;;;;;;;;;;5099615;28;20126;-90
2024/01/24 05:13:48;;;;;;;0.30;0.30;;;;;;;;;;5099257;28;20039;-89
2024/01/24 05:16:15;;;;;;;0.30;0.30;;;;;;;;;;5099129;28;20043;-91
2024/01/24 05:18:41;;;;;;;0.30;0.30;;;;;;;;;;5099033;28;20043;-92
2024/01/24 05:21:07;;;;;;;0.30;0.30;;;;;;;;;;5116116;28;20042;-92
2024/01/24 05:23:33;;;;;;;0.20;0.20;;;;;;;;;;5099434;28;20403;-91
2024/01/24 05:25:59;;;;;;;0.30;0.30;;;;;;;;;;5101290;27;20035;-92
2024/01/24 05:28:25;;;;;;;0.30;0.30;;;;;;;;;;5103678;27;20080;-93
2024/01/24 05:30:51;;;;;;;0.30;0.30;;;;;;;;;;5103452;27;20496;-92
2024/01/24 05:33:17;;;;;;;0.30;0.30;;;;;;;;;;5103110;27;20043;-93
2024/01/24 05:35:43;;;;;;;0.50;0.50;;;;;;;;;;5103315;27;20530;-92
2024/01/24 05:38:09;;;;;;;0.30;0.30;;;;;;;;;;5120401;27;20130;-92
2024/01/24 05:40:34;;;;;;;0.32;0.32;;;;;;;;;;5103206;27;20043;-92
2024/01/24 05:43:02;;;;;;;0.40;0.40;;;;;;;;;;5102727;27;20122;-92
2024/01/24 05:45:28;;;;;;;0.30;0.30;;;;;;;;;;5103236;27;20039;-92
2024/01/24 05:47:54;;;;;;;0.40;0.40;;;;;;;;;;5103107;27;20046;-92
2024/01/24 05:50:20;;;;;;;0.30;0.30;;;;;;;;;;5102865;27;20081;-93
2024/01/24 05:52:46;;;;;;;0.40;0.40;;;;;;;;;;5102739;27;20038;-91
2024/01/24 05:55:12;;;;;;;0.30;0.30;;;;;;;;;;5103091;27;20035;-92
2024/01/24 05:57:41;;;;;;;0.30;0.30;;;;;;;;;;5102743;27;20035;-92
2024/01/24 06:00:14;;;;;;;0.40;0.40;;;;;;;;;;5102712;27;20043;-92
2024/01/24 06:02:40;;;;;;;0.30;0.30;;;;;;;;;;5102482;27;20131;-92
2024/01/24 06:05:07;;;;;;;0.30;0.30;;;;;;;;;;5119468;27;20114;-92
2024/01/24 06:07:34;;;;;;;0.30;0.30;;;;;;;;;;5102951;27;20038;-92
2024/01/24 06:10:00;;;;;;;0.30;0.30;;;;;;;;;;5102678;27;20042;-92
2024/01/24 06:12:26;;;;;;;0.30;0.30;;;;;;;;;;5119212;27;20034;-92
2024/01/24 06:14:55;;;;;;;0.40;0.40;;;;;;;;;;5102772;27;20050;-96
2024/01/24 06:17:30;;;;;;;0.30;0.30;;;;;;;;;;5121269;27;20122;-92
2024/01/24 06:19:56;;;;;;;0.35;0.35;;;;;;;;;;5102139;27;20078;-92
2024/01/24 06:22:22;;;;;;;0.20;0.20;;;;;;;;;;5102184;27;20407;-92
2024/01/24 06:24:48;;;;;;;0.40;0.40;;;;;;;;;;5102516;27;20042;-92
2024/01/24 06:27:14;;;;;;;0.30;0.30;;;;;;;;;;5119392;27;20436;-92
2024/01/24 06:29:40;;;;;;;0.40;0.40;;;;;;;;;;5102234;27;20080;-92
2024/01/24 06:32:06;;;;;;;0.30;0.30;;;;;;;;;;5102207;27;20047;-92
2024/01/24 06:34:32;;;;;;;0.40;0.40;;;;;;;;;;5102174;27;20127;-92
2024/01/24 06:36:59;;;;;;;0.30;0.30;;;;;;;;;;5100841;27;20043;-92
2024/01/24 06:39:25;;;;;;;0.77;0.73;;;;;;;;;;5118712;27;20054;-92
2024/01/24 06:41:51;;;;;;;0.30;0.30;;;;;;;;;;5101944;27;20487;-92
2024/01/24 06:44:17;;;;;;;0.30;0.30;;;;;;;;;;5102097;27;20031;-92
2024/01/24 06:46:44;;;;;;;0.30;0.30;;;;;;;;;;5102005;27;20042;-92
2024/01/24 06:49:10;;;;;;;0.30;0.30;;;;;;;;;;5101828;27;20136;-92
2024/01/24 06:51:40;;;;;;;0.30;0.30;;;;;;;;;;5101842;27;20407;-91
2024/01/24 06:54:06;;;;;;;0.30;0.30;;;;;;;;;;5118733;27;20046;-91
2024/01/24 06:56:32;;;;;;;0.30;0.30;;;;;;;;;;5101664;27;20126;-91
2024/01/24 06:59:02;;;;;;;0.30;0.30;;;;;;;;;;5101646;27;20563;-89
2024/01/24 07:01:28;;;;;;;0.30;0.30;;;;;;;;;;5101706;27;20074;-91
2024/01/24 07:03:54;;;;;;;0.30;0.30;;;;;;;;;;5101723;27;20031;-91
2024/01/24 07:06:20;;;;;;;0.30;0.30;;;;;;;;;;5101680;27;20109;-91
2024/01/24 07:08:46;;;;;;;0.30;0.30;;;;;;;;;;5101429;27;20084;-90
2024/01/24 07:11:12;;;;;;;0.30;0.30;;;;;;;;;;5099417;27;20686;-91
2024/01/24 07:13:38;;;;;;;0.20;0.20;;;;;;;;;;5099878;27;20039;-91
2024/01/24 07:16:04;;;;;;;0.40;0.40;;;;;;;;;;5100744;27;20050;-91
2024/01/24 07:18:34;;;;;;;0.40;0.40;;;;;;;;;;5099991;27;20046;-91
2024/01/24 07:21:00;;;;;;;0.30;0.30;;;;;;;;;;5100558;27;20042;-91
2024/01/24 07:23:26;;;;;;;0.30;0.30;;;;;;;;;;5101162;27;20070;-92
2024/01/24 07:25:52;;;;;;;0.30;0.30;;;;;;;;;;5101782;27;20035;-94
2024/01/24 07:28:18;;;;;;;0.30;0.30;;;;;;;;;;5121599;27;20039;-95
2024/01/24 07:30:50;;;;;;;0.35;0.35;;;;;;;;;;5107257;27;20518;-93
2024/01/24 07:33:16;;;;;;;0.50;0.50;;;;;;;;;;5100574;27;20099;-93
2024/01/24 07:35:43;;;;;;;0.30;0.30;;;;;;;;;;5101227;27;20038;-91
2024/01/24 07:38:09;;;;;;;0.40;0.40;;;;;;;;;;5100170;27;20088;-91
2024/01/24 07:40:37;;;;;;;0.30;0.30;;;;;;;;;;5099129;27;20129;-91
2024/01/24 07:43:03;;;;;;;0.35;0.35;;;;;;;;;;5099299;27;20506;-91
2024/01/24 07:45:29;;;;;;;0.40;0.40;;;;;;;;;;5099261;27;20466;-90
2024/01/24 07:47:55;;;;;;;0.30;0.30;;;;;;;;;;5099667;27;20042;-91
2024/01/24 07:50:21;;;;;;;0.40;0.40;;;;;;;;;;5099892;27;20035;-95
2024/01/24 07:52:53;;;;;;;0.30;0.30;;;;;;;;;;5098597;28;20074;-94
2024/01/24 07:55:19;;;;;;;0.20;0.20;;;;;;;;;;5096849;28;20097;-90
2024/01/24 07:57:45;;;;;;;0.30;0.30;;;;;;;;;;5098464;28;20036;-96
2024/01/24 08:00:16;;;;;;;0.30;0.30;;;;;;;;;;5106213;27;20084;-93
2024/01/24 08:02:46;;;;;;;0.38;0.38;;;;;;;;;;5113034;27;20035;-94
2024/01/24 08:05:15;;;;;;;0.40;0.40;;;;;;;;;;5099670;27;20072;-95
2024/01/24 08:07:41;;;;;;;0.40;0.40;;;;;;;;;;5114621;27;20069;-94
2024/01/24 08:10:10;;;;;;;0.40;0.40;;;;;;;;;;5107741;27;20091;-92
2024/01/24 08:12:37;;;;;;;0.30;0.30;;;;;;;;;;5099050;27;20042;-93
2024/01/24 08:15:05;;;;;;;0.32;0.32;;;;;;;;;;5099492;27;20035;-95
2024/01/24 08:17:32;;;;;;;0.40;0.40;;;;;;;;;;5100571;27;20043;-96
2024/01/24 08:19:58;;;;;;;0.30;0.30;;;;;;;;;;5100090;27;20203;-95
2024/01/24 08:22:24;;;;;;;0.35;0.35;;;;;;;;;;5099373;27;20040;-93
2024/01/24 08:24:50;;;;;;;0.40;0.40;;;;;;;;;;5099886;27;20031;-94
2024/01/24 08:27:17;;;;;;;0.95;0.95;;;;;;;;;;5099229;27;20035;-94
2024/01/24 08:29:43;;;;;;;0.40;0.40;;;;;;;;;;5099095;27;20496;-94
2024/01/24 08:32:09;;;;;;;0.65;0.50;;;;;;;;;;5104254;27;20036;-95
2024/01/24 08:34:38;;;;;;;0.30;0.30;;;;;;;;;;5090718;27;20039;-95
2024/01/24 08:37:05;;;;;;;0.30;0.30;;;;;;;;;;5111814;27;20055;-95
2024/01/24 08:39:32;;;;;;;0.30;0.30;;;;;;;;;;5092949;28;20043;-92
2024/01/24 08:41:58;;;;;;;0.30;0.30;;;;;;;;;;5112053;27;20035;-92
2024/01/24 08:44:24;;;;;;;0.40;0.40;;;;;;;;;;5098838;27;20601;-96
2024/01/24 08:46:51;;;;;;;0.40;0.40;;;;;;;;;;5099523;28;20039;-96
2024/01/24 08:49:17;;;;;;;0.40;0.40;;;;;;;;;;5099632;27;20091;-93
2024/01/24 08:51:43;;;;;;;0.40;0.40;;;;;;;;;;5101467;27;20910;-92
2024/01/24 08:54:10;;;;;;;0.40;0.40;;;;;;;;;;5099435;27;20126;-94
2024/01/24 08:56:37;;;;;;;0.30;0.30;;;;;;;;;;5093162;28;20046;-90
2024/01/24 08:59:03;;;;;;;0.40;0.40;;;;;;;;;;5109763;28;20054;-96
2024/01/24 09:01:29;;;;;;;0.30;0.30;;;;;;;;;;5108143;27;20046;-96
2024/01/24 09:03:56;;;;;;;0.35;0.35;;;;;;;;;;5082843;28;20075;-92
2024/01/24 09:06:22;;;;;;;0.40;0.40;;;;;;;;;;5102616;27;20499;-90
2024/01/24 09:08:52;;;;;;;0.40;0.40;;;;;;;;;;5096137;27;20056;-92
2024/01/24 09:11:21;;;;;;;0.40;0.40;;;;;;;;;;5104094;27;20483;-93
2024/01/24 09:13:47;;;;;;;0.50;0.50;;;;;;;;;;5116174;27;20039;-96
2024/01/24 09:16:14;;;;;;;0.30;0.30;;;;;;;;;;5106720;27;20055;-96
2024/01/24 09:18:40;;;;;;;0.30;0.30;;;;;;;;;;5107400;27;20038;-93
2024/01/24 09:21:10;;;;;;;0.40;0.40;;;;;;;;;;5102938;27;20035;-91
2024/01/24 09:23:36;;;;;;;0.40;0.40;;;;;;;;;;5102732;27;20099;-91
2024/01/24 09:26:05;;;;;;;0.40;0.40;;;;;;;;;;5103233;27;20138;-91
2024/01/24 09:28:31;;;;;;;0.40;0.40;;;;;;;;;;5105490;27;20031;-90
2024/01/24 09:30:57;;;;;;;0.30;0.30;;;;;;;;;;5117976;27;20495;-91
2024/01/24 09:33:23;;;;;;;0.40;0.40;;;;;;;;;;5112122;27;20035;-90
2024/01/24 09:36:09;;;;;;;0.30;0.30;;;;;;;;;;5105387;27;20425;-89
2024/01/24 09:38:35;;;;;;;0.40;0.40;;;;;;;;;;5102481;27;20398;-88
2024/01/24 09:41:05;;;;;;;0.30;0.30;;;;;;;;;;5103686;27;20035;-91
2024/01/24 09:43:33;;;;;;;0.35;0.35;;;;;;;;;;5114499;27;20058;-91
2024/01/24 09:46:01;;;;;;;0.30;0.30;;;;;;;;;;5101467;27;20039;-91
2024/01/24 09:48:29;;;;;;;0.32;0.32;;;;;;;;;;5104725;27;20043;-91
2024/01/24 09:50:55;;;;;;;0.40;0.40;;;;;;;;;;5101595;27;20081;-90
2024/01/24 09:53:21;;;;;;;0.40;0.40;;;;;;;;;;5096776;28;20074;-92
2024/01/24 09:55:51;;;;;;;0.32;0.32;;;;;;;;;;5105495;27;20081;-91
2024/01/24 09:58:17;;;;;;;0.40;0.40;;;;;;;;;;5101594;27;20372;-93
2024/01/24 10:00:44;;;;;;;0.30;0.30;;;;;;;;;;5102962;27;20046;-91
2024/01/24 10:03:11;;;;;;;0.40;0.40;;;;;;;;;;5117886;27;20043;-90
2024/01/24 10:05:37;;;;;;;0.40;0.40;;;;;;;;;;5097204;28;20173;-90
2024/01/24 10:08:03;;;;;;;0.40;0.40;;;;;;;;;;5103933;27;20031;-96
2024/01/24 10:13:25;;;;;;;0.40;0.40;;;;;;;;;;5115618;27;20046;-94
2024/01/24 10:15:53;;;;;;;0.30;0.30;;;;;;;;;;5077547;28;20035;-92
2024/01/24 10:18:19;;;;;;;0.30;0.30;;;;;;;;;;5097643;27;20436;-92
2024/01/24 10:20:51;;;;;;;0.40;0.40;;;;;;;;;;5101401;27;20035;-91
2024/01/24 10:23:17;;;;;;;0.30;0.30;;;;;;;;;;5100887;27;20479;-92
2024/01/24 10:25:43;;;;;;;0.30;0.30;;;;;;;;;;5101499;27;20506;-91
2024/01/24 10:28:16;;;;;;;0.30;0.30;;;;;;;;;;5102869;27;20468;-96
2024/01/24 10:30:42;;;;;;;0.30;0.30;;;;;;;;;;5117698;27;20038;-94
2024/01/24 10:33:12;;;;;;;0.40;0.40;;;;;;;;;;5106711;28;20134;-94
2024/01/24 10:35:48;;;;;;;0.40;0.40;;;;;;;;;;5081656;28;20078;-92
2024/01/24 10:38:18;;;;;;;0.30;0.30;;;;;;;;;;5101185;27;20130;-94
2024/01/24 10:40:44;;;;;;;0.40;0.40;;;;;;;;;;5101383;27;20040;-93
2024/01/24 10:43:13;;;;;;;0.40;0.40;;;;;;;;;;5100707;27;20034;-92
2024/01/24 10:45:45;;;;;;;0.30;0.30;;;;;;;;;;5100544;27;20035;-94
2024/01/24 10:48:12;;;;;;;0.30;0.30;;;;;;;;;;5118496;27;20137;-94
2024/01/24 10:50:39;;;;;;;0.40;0.40;;;;;;;;;;5107413;27;20159;-94
2024/01/24 10:53:05;;;;;;;0.40;0.40;;;;;;;;;;5114258;27;20042;-96
2024/01/24 10:55:33;;;;;;;0.35;0.35;;;;;;;;;;5116880;27;20071;-94
2024/01/24 10:58:05;;;;;;;0.30;0.30;;;;;;;;;;5101521;27;20049;-96
2024/01/24 11:00:31;;;;;;;0.40;0.40;;;;;;;;;;5106414;27;20043;-94
2024/01/24 11:02:58;;;;;;;0.38;0.38;;;;;;;;;;5100699;27;20031;-91
2024/01/24 11:05:33;;;;;;;0.20;0.20;;;;;;;;;;5104445;27;20530;-90
2024/01/24 11:08:03;;;;;;;0.30;0.30;;;;;;;;;;5099747;27;20099;-89
2024/01/24 11:10:39;;;;;;;0.30;0.30;;;;;;;;;;5099470;27;20765;-90
2024/01/24 11:13:06;;;;;;;0.30;0.30;;;;;;;;;;5106343;27;20038;-90
2024/01/24 11:15:32;;;;;;;0.30;0.30;;;;;;;;;;5137451;27;20035;-89
2024/01/24 11:18:17;;;;;;;0.40;0.40;;;;;;;;;;5115025;27;20070;-92
2024/01/24 11:20:51;;;;;;;0.40;0.40;;;;;;;;;;5100876;27;20035;-91
2024/01/24 11:23:38;;;;;;;0.30;0.30;;;;;;;;;;5100144;27;20076;-91
2024/01/24 11:26:05;;;;;;;0.40;0.40;;;;;;;;;;5100512;27;20054;-93
2024/01/24 11:28:31;;;;;;;0.30;0.30;;;;;;;;;;5118027;27;20530;-94
2024/01/24 11:30:57;;;;;;;0.40;0.40;;;;;;;;;;5100797;27;20051;-94
2024/01/24 11:33:23;;;;;;;0.38;0.38;;;;;;;;;;5100918;27;20039;-94
2024/01/24 11:35:55;;;;;;;0.30;0.30;;;;;;;;;;5113769;27;20100;-95
2024/01/24 11:38:22;;;;;;;0.30;0.30;;;;;;;;;;5138248;27;20440;-94
2024/01/24 11:40:50;;;;;;;0.40;0.40;;;;;;;;;;5138282;27;20050;-94
2024/01/24 11:43:32;;;;;;;0.30;0.30;;;;;;;;;;5120757;27;20034;-94
2024/01/24 11:46:00;;;;;;;0.32;0.32;;;;;;;;;;5119937;27;20030;-94
2024/01/24 11:48:26;;;;;;;0.40;0.40;;;;;;;;;;5100571;27;20042;-93
2024/01/24 11:51:02;;;;;;;0.30;0.30;;;;;;;;;;5100661;27;20039;-93
2024/01/24 11:53:28;;;;;;;0.40;0.40;;;;;;;;;;5100476;27;20134;-94
2024/01/24 11:55:58;;;;;;;0.35;0.35;;;;;;;;;;5100356;27;20031;-93
2024/01/24 11:58:29;;;;;;;0.40;0.40;;;;;;;;;;5100348;27;20047;-94
2024/01/24 12:00:55;;;;;;;0.40;0.40;;;;;;;;;;5100455;27;20042;-94
2024/01/24 12:03:21;;;;;;;0.30;0.30;;;;;;;;;;5100240;27;20039;-94
2024/01/24 12:05:49;;;;;;;0.30;0.30;;;;;;;;;;5100167;27;20058;-93
2024/01/24 12:08:15;;;;;;;0.30;0.30;;;;;;;;;;5086651;27;20041;-94
2024/01/24 12:10:41;;;;;;;0.40;0.40;;;;;;;;;;5085455;27;20039;-93
2024/01/24 12:13:08;;;;;;;0.30;0.30;;;;;;;;;;5095834;28;20042;-92
2024/01/24 12:15:34;;;;;;;0.30;0.30;;;;;;;;;;5102856;28;20041;-93
2024/01/24 12:18:09;;;;;;;0.30;0.30;;;;;;;;;;5099963;27;20054;-93
2024/01/24 12:20:35;;;;;;;0.40;0.40;;;;;;;;;;5088305;28;20039;-93
2024/01/24 12:23:04;;;;;;;0.30;0.30;;;;;;;;;;5087297;27;20328;-92
2024/01/24 12:25:30;;;;;;;0.30;0.30;;;;;;;;;;5092654;28;20036;-91
2024/01/24 12:28:01;;;;;;;0.30;0.30;;;;;;;;;;5078866;28;20436;-91
2024/01/24 12:30:32;;;;;;;0.30;0.30;;;;;;;;;;5092837;27;20078;-91
2024/01/24 12:32:58;;;;;;;0.30;0.30;;;;;;;;;;5082982;28;20035;-93
2024/01/24 12:35:25;;;;;;;0.30;0.30;;;;;;;;;;5106397;27;20050;-91
2024/01/24 12:37:57;;;;;;;0.38;0.38;;;;;;;;;;5092951;27;20039;-93
2024/01/24 12:40:23;;;;;;;0.30;0.30;;;;;;;;;;5091757;27;20035;-93
2024/01/24 12:42:49;;;;;;;0.40;0.40;;;;;;;;;;5098944;28;20031;-91
2024/01/24 12:45:15;;;;;;;0.30;0.30;;;;;;;;;;5099385;27;20035;-91
2024/01/24 12:47:44;;;;;;;0.30;0.30;;;;;;;;;;5097111;27;20086;-89
2024/01/24 12:50:11;;;;;;;0.30;0.30;;;;;;;;;;5098837;28;20065;-93
2024/01/24 12:52:37;;;;;;;0.30;0.30;;;;;;;;;;5095128;28;20465;-93
2024/01/24 12:55:05;;;;;;;0.30;0.30;;;;;;;;;;5102634;28;20051;-93
2024/01/24 12:57:31;;;;;;;0.30;0.30;;;;;;;;;;5101217;28;20104;-93
2024/01/24 12:59:57;;;;;;;0.30;0.30;;;;;;;;;;5094094;28;20407;-92
2024/01/24 13:02:26;;;;;;;0.40;0.40;;;;;;;;;;5085114;28;20050;-96
2024/01/24 13:04:52;;;;;;;0.30;0.30;;;;;;;;;;5098415;28;20488;-95
2024/01/24 13:07:20;;;;;;;0.30;0.30;;;;;;;;;;5083866;28;20055;-95
2024/01/24 13:09:46;;;;;;;0.40;0.40;;;;;;;;;;5099099;28;20873;-96
2024/01/24 13:12:12;;;;;;;0.22;0.22;;;;;;;;;;5095458;28;20109;-94
2024/01/24 13:14:38;;;;;;;0.30;0.30;;;;;;;;;;5097723;28;20402;-96
2024/01/24 13:17:05;;;;;;;0.30;0.30;;;;;;;;;;5093904;28;20032;-96
2024/01/24 13:19:31;;;;;;;0.40;0.40;;;;;;;;;;5098024;28;20126;-95
2024/01/24 13:22:00;;;;;;;0.40;0.40;;;;;;;;;;5092371;28;20054;-94
2024/01/24 13:24:27;;;;;;;0.40;0.40;;;;;;;;;;5087556;28;20036;-94
2024/01/24 13:26:56;;;;;;;0.40;0.40;;;;;;;;;;5091511;28;20036;-94
2024/01/24 13:29:23;;;;;;;0.40;0.40;;;;;;;;;;5097676;28;20039;-95
2024/01/24 13:31:49;;;;;;;0.30;0.30;;;;;;;;;;5097820;28;20043;-93
2024/01/24 13:34:15;;;;;;;0.47;0.47;;;;;;;;;;5091230;28;20066;-93
2024/01/24 13:36:41;;;;;;;0.30;0.30;;;;;;;;;;5090141;28;20083;-94
2024/01/24 13:39:09;;;;;;;0.38;0.38;;;;;;;;;;5087816;28;20058;-92
2024/01/24 13:41:35;;;;;;;0.30;0.30;;;;;;;;;;5090767;28;20035;-92
2024/01/24 13:44:01;;;;;;;0.30;0.30;;;;;;;;;;5084311;28;20923;-96
2024/01/24 13:46:27;;;;;;;0.40;0.40;;;;;;;;;;5112407;27;20035;-93
2024/01/24 13:48:53;;;;;;;0.30;0.30;;;;;;;;;;5091767;27;20287;-92
2024/01/24 13:51:19;;;;;;;0.40;0.40;;;;;;;;;;5097115;27;20039;-91
2024/01/24 13:53:45;;;;;;;0.30;0.30;;;;;;;;;;5086025;28;20110;-94
2024/01/24 13:56:12;;;;;;;0.40;0.40;;;;;;;;;;5092973;27;20068;-95
2024/01/24 13:58:38;;;;;;;0.40;0.40;;;;;;;;;;5101775;27;20047;-95
2024/01/24 14:01:04;;;;;;;0.30;0.30;;;;;;;;;;5081158;28;20123;-92
2024/01/24 14:03:31;;;;;;;0.30;0.30;;;;;;;;;;5083681;28;20860;-92
2024/01/24 14:05:57;;;;;;;0.40;0.40;;;;;;;;;;5083354;27;20081;-94
2024/01/24 14:08:23;;;;;;;0.30;0.30;;;;;;;;;;5097166;27;20039;-93
2024/01/24 14:10:49;;;;;;;0.30;0.30;;;;;;;;;;5095238;28;20046;-92
2024/01/24 14:13:16;;;;;;;0.30;0.30;;;;;;;;;;5092731;27;20069;-91
2024/01/24 14:15:42;;;;;;;0.30;0.30;;;;;;;;;;5095878;27;20043;-90
2024/01/24 14:18:08;;;;;;;0.30;0.30;;;;;;;;;;5089878;27;20118;-91
2024/01/24 14:20:34;;;;;;;0.40;0.40;;;;;;;;;;5094069;28;20139;-91
2024/01/24 14:23:00;;;;;;;0.30;0.30;;;;;;;;;;5092712;27;20522;-90
2024/01/24 14:25:26;;;;;;;0.40;0.40;;;;;;;;;;5092226;27;20040;-90
2024/01/24 14:27:56;;;;;;;0.40;0.40;;;;;;;;;;5100163;27;20078;-90
2024/01/24 14:30:22;;;;;;;0.30;0.30;;;;;;;;;;5099233;27;20046;-90
2024/01/24 14:32:48;;;;;;;0.30;0.30;;;;;;;;;;5089331;28;20044;-90
2024/01/24 14:35:19;;;;;;;0.30;0.30;;;;;;;;;;5100033;27;20103;-92
2024/01/24 14:37:45;;;;;;;0.50;0.50;;;;;;;;;;5101780;27;20388;-91
2024/01/24 14:40:14;;;;;;;0.40;0.40;;;;;;;;;;5092605;27;20408;-91
2024/01/24 14:42:40;;;;;;;0.40;0.40;;;;;;;;;;5099083;27;20043;-93
2024/01/24 14:45:06;;;;;;;0.40;0.40;;;;;;;;;;5106750;27;20035;-91